sensor_id;sensor_type;location;lat;lon;timestamp;pressure;altitude;pressure_sealevel;temperature;humidity
42007;BME280;27696;42.704;23.304;2022-08-19T00:02:05;94991.25;;;34.23;26.23
42007;BME280;27696;42.704;23.304;2022-08-19T00:04:34;94994.25;;;35.39;25.21
42007;BME280;27696;42.704;23.304;2022-08-19T00:07:03;94995.53;;;34.99;25.72
42007;BME280;27696;42.704;23.304;2022-08-19T00:09:29;94993.13;;;34.85;26.14
42007;BME280;27696;42.704;23.304;2022-08-19T00:11:56;94995.75;;;34.83;25.83
42007;BME280;27696;42.704;23.304;2022-08-19T00:14:24;94990.72;;;35.29;25.14
42007;BME280;27696;42.704;23.304;2022-08-19T00:16:51;94992.25;;;34.83;26.00
42007;BME280;27696;42.704;23.304;2022-08-19T00:19:19;94996.22;;;34.90;25.87
42007;BME280;27696;42.704;23.304;2022-08-19T00:21:45;95006.41;;;34.58;26.14
42007;BME280;27696;42.704;23.304;2022-08-19T00:24:12;95000.19;;;35.63;25.35
42007;BME280;27696;42.704;23.304;2022-08-19T00:26:39;95008.34;;;35.31;25.51
42007;BME280;27696;42.704;23.304;2022-08-19T00:29:06;95007.47;;;35.09;26.00
42007;BME280;27696;42.704;23.304;2022-08-19T00:31:32;95017.19;;;34.44;26.71
42007;BME280;27696;42.704;23.304;2022-08-19T00:33:57;95010.59;;;34.21;26.77
42007;BME280;27696;42.704;23.304;2022-08-19T00:36:23;94997.16;;;34.65;26.46
42007;BME280;27696;42.704;23.304;2022-08-19T00:38:49;95002.56;;;34.53;26.64
42007;BME280;27696;42.704;23.304;2022-08-19T00:41:19;95000.34;;;34.88;26.53
42007;BME280;27696;42.704;23.304;2022-08-19T00:46:34;95001.44;;;34.66;26.28
42007;BME280;27696;42.704;23.304;2022-08-19T00:49:06;95000.72;;;34.75;26.19
42007;BME280;27696;42.704;23.304;2022-08-19T00:51:34;94999.28;;;34.19;27.09
42007;BME280;27696;42.704;23.304;2022-08-19T00:54:01;95001.19;;;34.44;26.59
42007;BME280;27696;42.704;23.304;2022-08-19T00:56:27;94986.34;;;34.69;26.75
42007;BME280;27696;42.704;23.304;2022-08-19T00:58:55;94991.03;;;35.23;25.87
42007;BME280;27696;42.704;23.304;2022-08-19T01:01:21;94996.47;;;34.74;26.33
42007;BME280;27696;42.704;23.304;2022-08-19T01:03:47;95006.38;;;34.03;26.92
42007;BME280;27696;42.704;23.304;2022-08-19T01:06:12;94991.56;;;34.28;26.71
42007;BME280;27696;42.704;23.304;2022-08-19T01:08:38;94999.56;;;34.41;26.43
42007;BME280;27696;42.704;23.304;2022-08-19T01:11:04;94995.38;;;34.97;26.00
42007;BME280;27696;42.704;23.304;2022-08-19T01:13:32;94991.91;;;35.36;25.17
42007;BME280;27696;42.704;23.304;2022-08-19T01:16:01;94980.25;;;34.53;26.49
42007;BME280;27696;42.704;23.304;2022-08-19T01:18:29;94986.72;;;34.01;26.75
42007;BME280;27696;42.704;23.304;2022-08-19T01:20:58;94997.94;;;34.38;26.72
42007;BME280;27696;42.704;23.304;2022-08-19T01:23:27;94989.88;;;33.52;27.19
42007;BME280;27696;42.704;23.304;2022-08-19T01:26:10;94992.97;;;33.91;26.82
42007;BME280;27696;42.704;23.304;2022-08-19T01:28:37;95001.66;;;33.43;27.66
42007;BME280;27696;42.704;23.304;2022-08-19T01:31:04;94983.97;;;33.30;27.67
42007;BME280;27696;42.704;23.304;2022-08-19T01:33:30;94990.72;;;33.19;27.45
42007;BME280;27696;42.704;23.304;2022-08-19T01:37:01;94998.63;;;33.66;26.78
42007;BME280;27696;42.704;23.304;2022-08-19T01:39:08;95003.81;;;33.52;26.90
42007;BME280;27696;42.704;23.304;2022-08-19T01:41:34;94997.00;;;33.02;27.38
42007;BME280;27696;42.704;23.304;2022-08-19T01:44:00;94998.28;;;32.84;27.79
42007;BME280;27696;42.704;23.304;2022-08-19T01:46:29;95000.78;;;32.97;27.57
42007;BME280;27696;42.704;23.304;2022-08-19T01:48:55;94994.28;;;33.20;27.24
42007;BME280;27696;42.704;23.304;2022-08-19T01:51:21;95002.84;;;33.14;27.45
42007;BME280;27696;42.704;23.304;2022-08-19T01:53:47;95004.94;;;33.49;27.22
42007;BME280;27696;42.704;23.304;2022-08-19T01:56:13;95008.13;;;33.02;27.67
42007;BME280;27696;42.704;23.304;2022-08-19T01:58:44;95007.72;;;33.49;27.32
42007;BME280;27696;42.704;23.304;2022-08-19T02:01:13;95004.91;;;32.63;28.68
42007;BME280;27696;42.704;23.304;2022-08-19T02:03:39;95006.34;;;32.97;28.30
42007;BME280;27696;42.704;23.304;2022-08-19T02:06:04;95012.41;;;33.21;27.89
42007;BME280;27696;42.704;23.304;2022-08-19T02:08:33;94995.88;;;33.06;27.22
42007;BME280;27696;42.704;23.304;2022-08-19T02:10:59;95013.69;;;32.52;28.22
42007;BME280;27696;42.704;23.304;2022-08-19T02:13:26;95009.38;;;32.92;27.85
42007;BME280;27696;42.704;23.304;2022-08-19T02:15:52;94992.97;;;33.74;26.99
42007;BME280;27696;42.704;23.304;2022-08-19T02:18:17;95006.47;;;33.60;27.23
42007;BME280;27696;42.704;23.304;2022-08-19T02:20:44;95003.50;;;33.23;27.70
42007;BME280;27696;42.704;23.304;2022-08-19T02:23:11;95002.31;;;33.69;26.73
42007;BME280;27696;42.704;23.304;2022-08-19T02:25:38;95009.94;;;33.51;26.94
42007;BME280;27696;42.704;23.304;2022-08-19T02:28:04;95001.56;;;32.90;27.41
42007;BME280;27696;42.704;23.304;2022-08-19T02:30:29;95013.34;;;32.48;28.35
42007;BME280;27696;42.704;23.304;2022-08-19T02:32:54;95005.66;;;32.31;28.67
42007;BME280;27696;42.704;23.304;2022-08-19T02:35:20;95002.13;;;33.31;27.03
42007;BME280;27696;42.704;23.304;2022-08-19T02:37:46;95003.38;;;32.11;28.54
42007;BME280;27696;42.704;23.304;2022-08-19T02:40:31;95002.09;;;32.05;29.04
42007;BME280;27696;42.704;23.304;2022-08-19T02:43:06;95010.22;;;32.10;29.10
42007;BME280;27696;42.704;23.304;2022-08-19T02:45:37;95017.81;;;32.02;29.26
42007;BME280;27696;42.704;23.304;2022-08-19T02:48:03;95010.38;;;31.64;29.70
42007;BME280;27696;42.704;23.304;2022-08-19T02:50:29;95010.78;;;31.68;29.79
42007;BME280;27696;42.704;23.304;2022-08-19T02:52:54;95016.31;;;31.68;29.65
42007;BME280;27696;42.704;23.304;2022-08-19T02:55:20;95004.84;;;31.48;30.02
42007;BME280;27696;42.704;23.304;2022-08-19T02:57:46;95002.66;;;31.47;31.35
42007;BME280;27696;42.704;23.304;2022-08-19T03:00:12;95002.84;;;31.41;30.69
42007;BME280;27696;42.704;23.304;2022-08-19T03:02:39;95009.31;;;31.44;30.50
42007;BME280;27696;42.704;23.304;2022-08-19T03:05:06;95017.41;;;31.65;30.10
42007;BME280;27696;42.704;23.304;2022-08-19T03:07:31;94987.88;;;31.44;30.24
42007;BME280;27696;42.704;23.304;2022-08-19T03:09:57;95018.00;;;32.04;29.06
42007;BME280;27696;42.704;23.304;2022-08-19T03:12:22;95009.28;;;31.75;29.18
42007;BME280;27696;42.704;23.304;2022-08-19T03:14:48;95015.13;;;31.87;29.06
42007;BME280;27696;42.704;23.304;2022-08-19T03:17:13;95002.97;;;31.67;29.67
42007;BME280;27696;42.704;23.304;2022-08-19T03:19:39;94989.34;;;31.38;30.22
42007;BME280;27696;42.704;23.304;2022-08-19T03:22:04;95001.84;;;31.77;29.24
42007;BME280;27696;42.704;23.304;2022-08-19T03:24:31;95012.84;;;31.44;30.08
42007;BME280;27696;42.704;23.304;2022-08-19T03:26:57;95009.13;;;31.49;30.10
42007;BME280;27696;42.704;23.304;2022-08-19T03:29:25;94993.59;;;32.03;28.94
42007;BME280;27696;42.704;23.304;2022-08-19T03:31:51;95012.25;;;31.54;29.91
42007;BME280;27696;42.704;23.304;2022-08-19T03:34:25;95012.97;;;31.62;29.95
42007;BME280;27696;42.704;23.304;2022-08-19T03:36:59;95002.50;;;32.34;28.77
42007;BME280;27696;42.704;23.304;2022-08-19T03:39:27;95011.59;;;31.14;30.56
42007;BME280;27696;42.704;23.304;2022-08-19T03:41:54;95017.97;;;32.12;29.15
42007;BME280;27696;42.704;23.304;2022-08-19T03:44:25;95019.84;;;32.76;28.36
42007;BME280;27696;42.704;23.304;2022-08-19T03:46:53;95029.94;;;31.82;29.55
42007;BME280;27696;42.704;23.304;2022-08-19T03:49:21;95032.16;;;31.91;29.47
42007;BME280;27696;42.704;23.304;2022-08-19T03:51:48;95025.81;;;31.98;29.01
42007;BME280;27696;42.704;23.304;2022-08-19T03:54:18;95029.94;;;31.89;29.37
42007;BME280;27696;42.704;23.304;2022-08-19T03:56:46;95029.63;;;31.77;29.53
42007;BME280;27696;42.704;23.304;2022-08-19T03:59:16;95037.38;;;32.61;28.69
42007;BME280;27696;42.704;23.304;2022-08-19T04:01:42;95035.69;;;32.32;29.02
42007;BME280;27696;42.704;23.304;2022-08-19T04:04:08;95035.97;;;32.03;29.61
42007;BME280;27696;42.704;23.304;2022-08-19T04:06:37;95049.09;;;32.10;29.61
42007;BME280;27696;42.704;23.304;2022-08-19T04:09:07;95053.34;;;32.52;29.15
42007;BME280;27696;42.704;23.304;2022-08-19T04:11:40;95041.75;;;32.38;29.78
42007;BME280;27696;42.704;23.304;2022-08-19T04:14:09;95039.19;;;32.66;28.90
42007;BME280;27696;42.704;23.304;2022-08-19T04:16:35;95040.63;;;32.01;29.66
42007;BME280;27696;42.704;23.304;2022-08-19T04:19:02;95050.97;;;32.82;28.85
42007;BME280;27696;42.704;23.304;2022-08-19T04:21:29;95053.47;;;32.29;29.41
42007;BME280;27696;42.704;23.304;2022-08-19T04:23:55;95031.50;;;32.49;29.11
42007;BME280;27696;42.704;23.304;2022-08-19T04:26:28;95051.53;;;33.06;28.41
42007;BME280;27696;42.704;23.304;2022-08-19T04:28:54;95053.59;;;33.23;27.87
42007;BME280;27696;42.704;23.304;2022-08-19T04:31:25;95057.00;;;33.56;27.60
42007;BME280;27696;42.704;23.304;2022-08-19T04:33:53;95055.59;;;33.05;28.08
42007;BME280;27696;42.704;23.304;2022-08-19T04:36:25;95061.19;;;33.05;28.23
42007;BME280;27696;42.704;23.304;2022-08-19T04:38:55;95052.88;;;32.97;28.60
42007;BME280;27696;42.704;23.304;2022-08-19T04:41:20;95051.94;;;32.44;29.16
42007;BME280;27696;42.704;23.304;2022-08-19T04:44:05;95052.94;;;32.56;29.25
42007;BME280;27696;42.704;23.304;2022-08-19T04:46:30;95058.69;;;32.58;29.25
42007;BME280;27696;42.704;23.304;2022-08-19T04:48:58;95045.50;;;32.66;29.25
42007;BME280;27696;42.704;23.304;2022-08-19T04:51:24;95055.63;;;32.46;29.20
42007;BME280;27696;42.704;23.304;2022-08-19T04:53:51;95053.50;;;33.13;28.38
42007;BME280;27696;42.704;23.304;2022-08-19T04:56:18;95061.03;;;32.69;28.99
42007;BME280;27696;42.704;23.304;2022-08-19T04:58:46;95052.03;;;32.53;28.98
42007;BME280;27696;42.704;23.304;2022-08-19T05:01:13;95064.69;;;32.80;28.68
42007;BME280;27696;42.704;23.304;2022-08-19T05:03:39;95056.09;;;32.27;29.33
42007;BME280;27696;42.704;23.304;2022-08-19T05:06:10;95045.13;;;32.62;28.90
42007;BME280;27696;42.704;23.304;2022-08-19T05:08:38;95065.72;;;32.92;28.98
42007;BME280;27696;42.704;23.304;2022-08-19T05:11:11;95056.34;;;33.05;28.79
42007;BME280;27696;42.704;23.304;2022-08-19T05:13:37;95058.56;;;33.07;28.86
42007;BME280;27696;42.704;23.304;2022-08-19T05:16:03;95063.78;;;33.02;28.41
42007;BME280;27696;42.704;23.304;2022-08-19T05:18:29;95057.50;;;33.02;28.45
42007;BME280;27696;42.704;23.304;2022-08-19T05:21:15;95066.38;;;33.00;28.90
42007;BME280;27696;42.704;23.304;2022-08-19T05:23:59;95067.09;;;33.34;27.99
42007;BME280;27696;42.704;23.304;2022-08-19T05:26:25;95070.06;;;33.28;28.53
42007;BME280;27696;42.704;23.304;2022-08-19T05:28:52;95070.81;;;34.07;27.02
42007;BME280;27696;42.704;23.304;2022-08-19T05:31:18;95058.69;;;34.67;25.81
42007;BME280;27696;42.704;23.304;2022-08-19T05:33:44;95071.03;;;33.23;28.51
42007;BME280;27696;42.704;23.304;2022-08-19T05:36:10;95057.75;;;33.14;28.39
42007;BME280;27696;42.704;23.304;2022-08-19T05:38:35;95056.53;;;33.50;27.83
42007;BME280;27696;42.704;23.304;2022-08-19T05:41:09;95069.97;;;33.61;27.89
42007;BME280;27696;42.704;23.304;2022-08-19T05:43:36;95068.91;;;33.92;27.83
42007;BME280;27696;42.704;23.304;2022-08-19T05:46:03;95069.44;;;34.43;26.18
42007;BME280;27696;42.704;23.304;2022-08-19T05:48:29;95066.44;;;34.14;27.19
42007;BME280;27696;42.704;23.304;2022-08-19T05:50:55;95071.69;;;33.74;26.92
42007;BME280;27696;42.704;23.304;2022-08-19T05:53:22;95065.78;;;33.70;27.59
42007;BME280;27696;42.704;23.304;2022-08-19T05:55:47;95064.78;;;34.55;26.73
42007;BME280;27696;42.704;23.304;2022-08-19T05:58:13;95070.63;;;34.05;27.38
42007;BME280;27696;42.704;23.304;2022-08-19T06:00:38;95068.09;;;33.99;26.75
42007;BME280;27696;42.704;23.304;2022-08-19T06:03:05;95065.41;;;34.91;25.73
42007;BME280;27696;42.704;23.304;2022-08-19T06:05:31;95079.41;;;34.74;25.52
42007;BME280;27696;42.704;23.304;2022-08-19T06:07:57;95064.22;;;35.41;25.11
42007;BME280;27696;42.704;23.304;2022-08-19T06:10:24;95064.66;;;35.38;24.33
42007;BME280;27696;42.704;23.304;2022-08-19T06:12:51;95065.81;;;35.34;24.81
42007;BME280;27696;42.704;23.304;2022-08-19T06:15:16;95073.66;;;34.99;25.10
42007;BME280;27696;42.704;23.304;2022-08-19T06:17:42;95070.19;;;34.81;25.09
42007;BME280;27696;42.704;23.304;2022-08-19T06:20:11;95073.75;;;35.28;24.77
42007;BME280;27696;42.704;23.304;2022-08-19T06:22:42;95076.97;;;34.87;25.33
42007;BME280;27696;42.704;23.304;2022-08-19T06:25:08;95071.31;;;35.42;24.68
42007;BME280;27696;42.704;23.304;2022-08-19T06:27:37;95067.84;;;36.01;23.92
42007;BME280;27696;42.704;23.304;2022-08-19T06:30:03;95075.44;;;35.61;24.59
42007;BME280;27696;42.704;23.304;2022-08-19T06:32:29;95066.03;;;35.76;24.65
42007;BME280;27696;42.704;23.304;2022-08-19T06:34:55;95060.72;;;36.29;24.12
42007;BME280;27696;42.704;23.304;2022-08-19T06:37:20;95061.94;;;36.06;24.03
42007;BME280;27696;42.704;23.304;2022-08-19T06:39:47;95066.63;;;36.14;24.11
42007;BME280;27696;42.704;23.304;2022-08-19T06:42:12;95068.88;;;36.66;23.68
42007;BME280;27696;42.704;23.304;2022-08-19T06:44:43;95064.13;;;36.28;24.32
42007;BME280;27696;42.704;23.304;2022-08-19T06:47:11;95055.88;;;36.81;23.59
42007;BME280;27696;42.704;23.304;2022-08-19T06:49:37;95069.56;;;37.50;22.42
42007;BME280;27696;42.704;23.304;2022-08-19T06:52:04;95054.97;;;36.88;23.12
42007;BME280;27696;42.704;23.304;2022-08-19T06:54:30;95064.53;;;37.26;22.71
42007;BME280;27696;42.704;23.304;2022-08-19T06:56:57;95066.69;;;38.03;21.78
42007;BME280;27696;42.704;23.304;2022-08-19T06:59:24;95068.28;;;38.06;21.91
42007;BME280;27696;42.704;23.304;2022-08-19T07:01:54;95067.97;;;38.23;21.67
42007;BME280;27696;42.704;23.304;2022-08-19T07:04:23;95076.97;;;38.55;21.03
42007;BME280;27696;42.704;23.304;2022-08-19T07:06:49;95072.72;;;38.21;21.80
42007;BME280;27696;42.704;23.304;2022-08-19T07:09:17;95080.81;;;38.84;20.44
42007;BME280;27696;42.704;23.304;2022-08-19T07:11:43;95083.66;;;38.50;21.27
42007;BME280;27696;42.704;23.304;2022-08-19T07:14:09;95075.91;;;38.84;20.82
42007;BME280;27696;42.704;23.304;2022-08-19T07:16:34;95075.78;;;39.54;20.48
42007;BME280;27696;42.704;23.304;2022-08-19T07:18:59;95073.16;;;39.82;19.88
42007;BME280;27696;42.704;23.304;2022-08-19T07:21:26;95074.88;;;40.38;19.06
42007;BME280;27696;42.704;23.304;2022-08-19T07:23:53;95069.00;;;40.34;18.90
42007;BME280;27696;42.704;23.304;2022-08-19T07:26:22;95081.97;;;39.64;19.96
42007;BME280;27696;42.704;23.304;2022-08-19T07:28:48;95071.97;;;39.61;20.16
42007;BME280;27696;42.704;23.304;2022-08-19T07:31:15;95075.53;;;39.99;19.60
42007;BME280;27696;42.704;23.304;2022-08-19T07:33:43;95076.41;;;39.40;20.12
42007;BME280;27696;42.704;23.304;2022-08-19T07:36:09;95062.03;;;40.61;19.14
42007;BME280;27696;42.704;23.304;2022-08-19T07:38:38;95065.38;;;40.72;19.38
42007;BME280;27696;42.704;23.304;2022-08-19T07:41:04;95063.56;;;41.18;18.81
42007;BME280;27696;42.704;23.304;2022-08-19T07:43:30;95059.97;;;40.76;19.02
42007;BME280;27696;42.704;23.304;2022-08-19T07:45:55;95060.53;;;41.28;18.62
42007;BME280;27696;42.704;23.304;2022-08-19T07:48:24;95073.56;;;41.21;18.19
42007;BME280;27696;42.704;23.304;2022-08-19T07:50:53;95063.66;;;41.34;17.75
42007;BME280;27696;42.704;23.304;2022-08-19T07:53:20;95065.22;;;41.23;17.84
42007;BME280;27696;42.704;23.304;2022-08-19T07:55:45;95068.69;;;41.22;17.94
42007;BME280;27696;42.704;23.304;2022-08-19T07:58:12;95063.09;;;40.82;18.09
42007;BME280;27696;42.704;23.304;2022-08-19T08:00:37;95059.25;;;41.59;17.73
42007;BME280;27696;42.704;23.304;2022-08-19T08:03:03;95058.66;;;41.19;18.11
42007;BME280;27696;42.704;23.304;2022-08-19T08:05:28;95065.03;;;41.19;17.98
42007;BME280;27696;42.704;23.304;2022-08-19T08:08:12;95064.28;;;41.60;17.76
42007;BME280;27696;42.704;23.304;2022-08-19T08:10:56;95060.34;;;41.82;17.29
42007;BME280;27696;42.704;23.304;2022-08-19T08:13:22;95056.97;;;41.41;17.55
42007;BME280;27696;42.704;23.304;2022-08-19T08:15:47;95060.59;;;41.72;17.62
42007;BME280;27696;42.704;23.304;2022-08-19T08:18:12;95060.16;;;41.91;17.25
42007;BME280;27696;42.704;23.304;2022-08-19T08:20:38;95048.81;;;40.78;18.60
42007;BME280;27696;42.704;23.304;2022-08-19T08:23:04;95048.00;;;41.31;17.93
42007;BME280;27696;42.704;23.304;2022-08-19T08:25:48;95042.41;;;41.75;17.52
42007;BME280;27696;42.704;23.304;2022-08-19T08:28:15;95043.97;;;40.01;19.14
42007;BME280;27696;42.704;23.304;2022-08-19T08:30:41;95036.31;;;40.81;18.15
42007;BME280;27696;42.704;23.304;2022-08-19T08:33:09;95045.91;;;41.31;17.75
42007;BME280;27696;42.704;23.304;2022-08-19T08:35:34;95045.78;;;40.34;18.41
42007;BME280;27696;42.704;23.304;2022-08-19T08:38:00;95036.53;;;40.85;17.93
42007;BME280;27696;42.704;23.304;2022-08-19T08:46:13;95035.22;;;42.32;16.46
42007;BME280;27696;42.704;23.304;2022-08-19T08:51:18;95035.81;;;42.14;16.24
42007;BME280;27696;42.704;23.304;2022-08-19T08:53:48;95008.56;;;41.75;16.46
42007;BME280;27696;42.704;23.304;2022-08-19T08:56:15;95014.50;;;41.51;16.65
42007;BME280;27696;42.704;23.304;2022-08-19T08:59:00;94979.66;;;42.04;16.32
42007;BME280;27696;42.704;23.304;2022-08-19T09:01:29;95013.69;;;41.79;16.38
42007;BME280;27696;42.704;23.304;2022-08-19T09:03:54;95025.25;;;41.41;17.02
42007;BME280;27696;42.704;23.304;2022-08-19T09:06:38;95023.22;;;42.01;16.84
42007;BME280;27696;42.704;23.304;2022-08-19T09:09:22;95014.56;;;42.59;15.93
42007;BME280;27696;42.704;23.304;2022-08-19T09:12:04;95015.13;;;41.36;16.69
42007;BME280;27696;42.704;23.304;2022-08-19T09:17:09;95010.84;;;41.49;16.48
42007;BME280;27696;42.704;23.304;2022-08-19T09:19:46;95001.41;;;42.02;15.86
42007;BME280;27696;42.704;23.304;2022-08-19T09:22:13;95009.75;;;42.00;15.97
42007;BME280;27696;42.704;23.304;2022-08-19T09:24:39;95001.28;;;41.70;16.15
42007;BME280;27696;42.704;23.304;2022-08-19T09:27:04;94998.84;;;42.08;15.37
42007;BME280;27696;42.704;23.304;2022-08-19T09:29:30;95000.22;;;41.77;15.34
42007;BME280;27696;42.704;23.304;2022-08-19T09:31:55;94992.78;;;42.30;14.96
42007;BME280;27696;42.704;23.304;2022-08-19T09:34:21;95003.06;;;42.23;14.80
42007;BME280;27696;42.704;23.304;2022-08-19T09:36:47;94989.28;;;42.77;14.22
42007;BME280;27696;42.704;23.304;2022-08-19T09:39:18;94992.91;;;42.64;14.03
42007;BME280;27696;42.704;23.304;2022-08-19T09:41:44;94982.97;;;42.63;14.21
42007;BME280;27696;42.704;23.304;2022-08-19T09:44:09;94986.06;;;41.61;14.59
42007;BME280;27696;42.704;23.304;2022-08-19T09:46:37;94987.69;;;41.80;14.50
42007;BME280;27696;42.704;23.304;2022-08-19T09:49:03;94983.94;;;42.21;14.24
42007;BME280;27696;42.704;23.304;2022-08-19T09:51:31;94978.97;;;42.68;13.91
42007;BME280;27696;42.704;23.304;2022-08-19T09:54:00;94980.91;;;42.47;14.20
42007;BME280;27696;42.704;23.304;2022-08-19T09:56:26;94982.34;;;42.80;14.82
42007;BME280;27696;42.704;23.304;2022-08-19T09:58:52;94969.59;;;43.29;14.83
42007;BME280;27696;42.704;23.304;2022-08-19T10:01:23;94954.09;;;43.14;14.32
42007;BME280;27696;42.704;23.304;2022-08-19T10:03:51;94967.47;;;43.30;13.82
42007;BME280;27696;42.704;23.304;2022-08-19T10:06:18;94964.81;;;43.34;13.26
42007;BME280;27696;42.704;23.304;2022-08-19T10:08:45;94964.22;;;43.72;13.03
42007;BME280;27696;42.704;23.304;2022-08-19T10:11:11;94962.41;;;42.76;13.54
42007;BME280;27696;42.704;23.304;2022-08-19T10:13:37;94955.75;;;42.37;13.52
42007;BME280;27696;42.704;23.304;2022-08-19T10:16:08;94961.88;;;43.66;13.06
42007;BME280;27696;42.704;23.304;2022-08-19T10:18:35;94958.84;;;42.60;13.53
42007;BME280;27696;42.704;23.304;2022-08-19T10:23:32;94948.38;;;42.30;13.44
42007;BME280;27696;42.704;23.304;2022-08-19T10:26:00;94952.97;;;44.30;13.12
42007;BME280;27696;42.704;23.304;2022-08-19T10:28:25;94946.03;;;44.74;12.79
42007;BME280;27696;42.704;23.304;2022-08-19T10:30:51;94945.75;;;44.45;12.90
42007;BME280;27696;42.704;23.304;2022-08-19T10:33:17;94941.44;;;45.05;12.76
42007;BME280;27696;42.704;23.304;2022-08-19T10:35:42;94945.38;;;44.35;12.73
42007;BME280;27696;42.704;23.304;2022-08-19T10:38:08;94946.03;;;43.59;13.25
42007;BME280;27696;42.704;23.304;2022-08-19T10:40:33;94942.97;;;44.27;13.07
42007;BME280;27696;42.704;23.304;2022-08-19T10:43:00;94936.25;;;44.57;12.43
42007;BME280;27696;42.704;23.304;2022-08-19T10:45:25;94928.28;;;45.36;12.46
42007;BME280;27696;42.704;23.304;2022-08-19T10:47:52;94935.78;;;45.05;12.43
42007;BME280;27696;42.704;23.304;2022-08-19T10:50:18;94946.06;;;44.15;12.50
42007;BME280;27696;42.704;23.304;2022-08-19T10:53:06;94930.00;;;46.38;11.28
42007;BME280;27696;42.704;23.304;2022-08-19T10:55:33;94933.13;;;45.11;12.10
42007;BME280;27696;42.704;23.304;2022-08-19T10:58:19;94918.25;;;46.26;11.64
42007;BME280;27696;42.704;23.304;2022-08-19T11:00:58;94927.25;;;46.69;11.27
42007;BME280;27696;42.704;23.304;2022-08-19T11:03:24;94923.38;;;47.10;10.98
42007;BME280;27696;42.704;23.304;2022-08-19T11:06:10;94931.31;;;45.42;12.11
42007;BME280;27696;42.704;23.304;2022-08-19T11:08:35;94927.06;;;45.87;11.64
42007;BME280;27696;42.704;23.304;2022-08-19T11:11:03;94924.78;;;45.59;12.19
42007;BME280;27696;42.704;23.304;2022-08-19T11:13:29;94912.84;;;47.15;11.43
42007;BME280;27696;42.704;23.304;2022-08-19T11:18:23;94912.47;;;48.25;10.98
42007;BME280;27696;42.704;23.304;2022-08-19T11:20:49;94901.16;;;48.29;11.01
42007;BME280;27696;42.704;23.304;2022-08-19T11:23:14;94910.94;;;47.54;11.58
42007;BME280;27696;42.704;23.304;2022-08-19T11:25:39;94904.91;;;48.38;10.83
42007;BME280;27696;42.704;23.304;2022-08-19T11:28:04;94903.34;;;48.67;10.32
42007;BME280;27696;42.704;23.304;2022-08-19T11:30:30;94902.13;;;47.13;11.24
42007;BME280;27696;42.704;23.304;2022-08-19T11:32:55;94906.41;;;45.61;11.95
42007;BME280;27696;42.704;23.304;2022-08-19T11:35:21;94906.22;;;44.29;12.47
42007;BME280;27696;42.704;23.304;2022-08-19T11:37:48;94893.88;;;46.69;11.30
42007;BME280;27696;42.704;23.304;2022-08-19T11:40:13;94893.78;;;45.90;11.73
42007;BME280;27696;42.704;23.304;2022-08-19T11:42:39;94891.13;;;47.58;10.55
42007;BME280;27696;42.704;23.304;2022-08-19T11:45:20;94895.75;;;47.43;10.53
42007;BME280;27696;42.704;23.304;2022-08-19T11:47:45;94892.50;;;48.23;10.27
42007;BME280;27696;42.704;23.304;2022-08-19T11:50:12;94884.41;;;47.46;10.71
42007;BME280;27696;42.704;23.304;2022-08-19T11:52:37;94879.97;;;48.01;10.33
42007;BME280;27696;42.704;23.304;2022-08-19T11:55:02;94870.91;;;49.30;9.72
42007;BME280;27696;42.704;23.304;2022-08-19T11:57:28;94874.84;;;48.67;10.09
42007;BME280;27696;42.704;23.304;2022-08-19T11:59:54;94877.66;;;46.45;11.72
42007;BME280;27696;42.704;23.304;2022-08-19T12:02:20;94869.06;;;49.04;10.27
42007;BME280;27696;42.704;23.304;2022-08-19T12:04:46;94860.81;;;48.41;10.29
42007;BME280;27696;42.704;23.304;2022-08-19T12:07:12;94869.25;;;48.00;10.11
42007;BME280;27696;42.704;23.304;2022-08-19T12:09:38;94860.09;;;49.22;9.75
42007;BME280;27696;42.704;23.304;2022-08-19T12:12:04;94862.31;;;48.46;10.58
42007;BME280;27696;42.704;23.304;2022-08-19T12:14:29;94853.19;;;48.92;9.72
42007;BME280;27696;42.704;23.304;2022-08-19T12:16:55;94856.28;;;46.99;11.20
42007;BME280;27696;42.704;23.304;2022-08-19T12:19:21;94851.50;;;48.77;9.96
42007;BME280;27696;42.704;23.304;2022-08-19T12:21:46;94844.00;;;49.43;9.37
42007;BME280;27696;42.704;23.304;2022-08-19T12:24:12;94841.75;;;49.86;9.29
42007;BME280;27696;42.704;23.304;2022-08-19T12:26:38;94836.63;;;50.34;8.70
42007;BME280;27696;42.704;23.304;2022-08-19T12:29:03;94833.69;;;50.26;9.03
42007;BME280;27696;42.704;23.304;2022-08-19T12:31:29;94827.84;;;50.83;8.53
42007;BME280;27696;42.704;23.304;2022-08-19T12:33:54;94824.44;;;49.72;9.63
42007;BME280;27696;42.704;23.304;2022-08-19T12:36:19;94824.28;;;50.87;9.11
42007;BME280;27696;42.704;23.304;2022-08-19T12:38:46;94816.13;;;50.56;8.70
42007;BME280;27696;42.704;23.304;2022-08-19T12:41:13;94816.00;;;51.26;8.38
42007;BME280;27696;42.704;23.304;2022-08-19T12:43:38;94821.06;;;50.49;9.19
42007;BME280;27696;42.704;23.304;2022-08-19T12:46:06;94810.91;;;50.34;8.66
42007;BME280;27696;42.704;23.304;2022-08-19T12:48:32;94812.38;;;49.76;9.25
42007;BME280;27696;42.704;23.304;2022-08-19T12:50:58;94819.16;;;46.91;10.98
42007;BME280;27696;42.704;23.304;2022-08-19T12:53:24;94814.81;;;48.18;11.08
42007;BME280;27696;42.704;23.304;2022-08-19T12:55:57;94796.53;;;50.24;9.68
42007;BME280;27696;42.704;23.304;2022-08-19T12:58:23;94802.69;;;49.46;10.10
42007;BME280;27696;42.704;23.304;2022-08-19T13:00:49;94803.56;;;49.59;9.91
42007;BME280;27696;42.704;23.304;2022-08-19T13:03:14;94804.41;;;51.05;8.62
42007;BME280;27696;42.704;23.304;2022-08-19T13:05:41;94799.28;;;50.13;9.30
42007;BME280;27696;42.704;23.304;2022-08-19T13:08:06;94806.28;;;50.06;9.12
42007;BME280;27696;42.704;23.304;2022-08-19T13:10:34;94791.66;;;49.75;9.33
42007;BME280;27696;42.704;23.304;2022-08-19T13:13:00;94798.53;;;50.85;8.60